Time;durP1;ratioP1;P1;durP2;ratioP2;P2;SDS_P1;SDS_P2;PMS_P1;PMS_P2;Temp;Humidity;BMP_temperature;BMP_pressure;BME280_temperature;BME280_humidity;BME280_pressure;Samples;Min_cycle;Max_cycle;Signal;HPM_P1;HPM_P2
2023/04/03 00:00:45;;;;;;;7.28;2.53;;;;;;;23.33;38.90;99541.25;4338127;32;33241;-67
2023/04/03 00:03:13;;;;;;;4.37;2.30;;;;;;;23.31;38.92;99537.94;4338450;32;33861;-66
2023/04/03 00:05:41;;;;;;;14.63;2.55;;;;;;;23.29;38.90;99540.06;4347504;32;35221;-67
2023/04/03 00:08:09;;;;;;;4.87;2.03;;;;;;;23.29;38.91;99531.91;4347492;32;34912;-68
2023/04/03 00:10:37;;;;;;;6.50;2.17;;;;;;;23.29;38.94;99540.06;4323252;32;32549;-68
2023/04/03 00:13:05;;;;;;;3.75;2.00;;;;;;;23.28;38.95;99536.50;4347650;32;33470;-68
2023/04/03 00:15:33;;;;;;;4.75;2.45;;;;;;;23.27;38.98;99545.75;4335547;32;33640;-66
2023/04/03 00:18:01;;;;;;;4.47;2.15;;;;;;;23.28;38.95;99543.84;4335065;32;33183;-66
2023/04/03 00:20:28;;;;;;;4.97;2.30;;;;;;;23.29;38.95;99545.50;4333006;32;32522;-67
2023/04/03 00:22:57;;;;;;;4.40;2.25;;;;;;;23.28;39.00;99546.56;4347233;32;33651;-68
2023/04/03 00:25:24;;;;;;;4.03;2.10;;;;;;;23.28;39.02;99549.31;4347264;32;34002;-66
2023/04/03 00:27:52;;;;;;;4.15;2.10;;;;;;;23.28;39.02;99550.13;4347341;32;34853;-66
2023/04/03 00:30:20;;;;;;;4.85;2.20;;;;;;;23.27;39.04;99558.50;4335178;32;33196;-68
2023/04/03 00:32:49;;;;;;;4.82;2.33;;;;;;;23.24;39.14;99557.09;4335153;32;33939;-66
2023/04/03 00:35:17;;;;;;;6.45;2.33;;;;;;;23.23;39.17;99560.88;4360506;32;34223;-67
2023/04/03 00:37:44;;;;;;;5.80;2.20;;;;;;;23.22;39.19;99556.47;4334881;32;33132;-67
2023/04/03 00:40:13;;;;;;;5.47;2.05;;;;;;;23.22;39.14;99567.34;4360319;32;33558;-69
2023/04/03 00:42:41;;;;;;;4.50;1.98;;;;;;;23.22;39.13;99555.66;4334691;32;33984;-69
2023/04/03 00:45:11;;;;;;;3.92;2.00;;;;;;;23.20;39.15;99563.22;4347025;32;33843;-67
2023/04/03 00:47:39;;;;;;;4.97;2.50;;;;;;;23.19;39.18;99561.56;4360415;32;33878;-67
2023/04/03 00:50:07;;;;;;;3.65;1.98;;;;;;;23.19;39.16;99556.97;4347056;32;33175;-67
2023/04/03 00:52:35;;;;;;;5.62;2.30;;;;;;;23.17;39.20;99557.19;4322436;32;33837;-67
2023/04/03 00:55:05;;;;;;;5.80;2.00;;;;;;;23.19;39.27;99567.00;4334529;32;33212;-68
2023/04/03 00:57:33;;;;;;;;;;;;;;;23.17;39.48;99565.34;4334872;32;33860;-67
2023/04/03 01:00:09;;;;;;;4.05;2.10;;;;;;;23.28;39.31;99565.63;4347013;32;33424;-67
2023/04/03 01:02:37;;;;;;;3.95;2.17;;;;;;;23.21;39.49;99573.03;4348063;32;33625;-66
2023/04/03 01:05:06;;;;;;;6.53;2.22;;;;;;;23.19;39.56;99572.47;4362658;32;34684;-67
2023/04/03 01:07:35;;;;;;;6.97;2.28;;;;;;;23.18;39.58;99571.63;4348997;32;33922;-66
2023/04/03 01:10:14;;;;;;;3.87;2.03;;;;;;;23.16;39.59;99571.84;4349220;32;33662;-66
2023/04/03 01:12:43;;;;;;;4.72;2.17;;;;;;;23.16;39.56;99566.41;4313025;32;32598;-68
2023/04/03 01:15:22;;;;;;;4.95;2.20;;;;;;;23.14;39.56;99571.25;4337188;32;33107;-67
2023/04/03 01:17:51;;;;;;;5.00;2.08;;;;;;;23.14;39.51;99568.53;4362417;32;34065;-66
2023/04/03 01:20:31;;;;;;;5.22;2.05;;;;;;;23.12;39.51;99570.62;4336764;32;33483;-67
2023/04/03 01:23:08;;;;;;;3.67;1.87;;;;;;;23.15;39.44;99570.19;4336445;32;32991;-67
2023/04/03 01:25:41;;;;;;;4.97;2.40;;;;;;;23.14;39.48;99578.59;4362185;32;33551;-67
2023/04/03 01:28:12;;;;;;;3.35;1.95;;;;;;;23.11;39.49;99571.69;4361667;32;34086;-67
2023/04/03 01:30:50;;;;;;;5.65;2.00;;;;;;;23.11;39.52;99571.69;4336630;32;33180;-67
2023/04/03 01:33:18;;;;;;;7.87;2.17;;;;;;;23.13;39.50;99572.31;4337275;32;34686;-66
2023/04/03 01:35:46;;;;;;;5.93;2.20;;;;;;;23.12;39.50;99576.06;4348978;32;33562;-67
2023/04/03 01:38:14;;;;;;;4.15;1.87;;;;;;;23.11;39.49;99576.31;4348457;32;33149;-67
2023/04/03 01:40:42;;;;;;;6.72;2.10;;;;;;;23.11;39.52;99573.59;4336373;32;32499;-68
2023/04/03 01:43:10;;;;;;;3.42;1.83;;;;;;;23.11;39.56;99577.16;4348751;32;33888;-66
2023/04/03 01:45:37;;;;;;;4.43;2.20;;;;;;;23.10;39.53;99567.31;4348604;32;34818;-67
2023/04/03 01:48:05;;;;;;;4.95;1.90;;;;;;;23.09;39.54;99575.72;4348594;32;34836;-67
2023/04/03 01:50:33;;;;;;;4.80;2.12;;;;;;;23.09;39.52;99579.28;4348656;32;34249;-68
2023/04/03 01:53:01;;;;;;;4.28;1.92;;;;;;;23.09;39.51;99576.56;4348382;32;33113;-67
2023/04/03 01:55:28;;;;;;;3.05;1.80;;;;;;;23.09;39.53;99578.44;4362049;32;33900;-71
2023/04/03 01:57:56;;;;;;;5.62;2.05;;;;;;;23.08;39.51;99574.91;4362255;32;34782;-67
2023/04/03 02:00:24;;;;;;;4.90;2.12;;;;;;;23.11;39.56;99584.47;4336306;32;33681;-70
2023/04/03 02:02:51;;;;;;;7.30;1.90;;;;;;;23.09;39.53;99581.16;4348353;32;33541;-65
2023/04/03 02:05:19;;;;;;;4.90;1.87;;;;;;;23.09;39.56;99582.00;4362002;32;33887;-67
2023/04/03 02:07:46;;;;;;;4.15;2.03;;;;;;;23.09;39.54;99583.91;4361901;32;33967;-71
2023/04/03 02:10:14;;;;;;;4.97;2.10;;;;;;;23.08;39.56;99588.50;4336228;32;33717;-69
2023/04/03 02:12:42;;;;;;;4.47;2.00;;;;;;;23.08;39.56;99582.22;4361585;32;34688;-68
2023/04/03 02:15:10;;;;;;;5.25;2.00;;;;;;;23.08;39.54;99577.62;4335993;32;33276;-70
2023/04/03 02:17:37;;;;;;;4.95;2.03;;;;;;;23.08;39.54;99585.78;4348415;32;34153;-67
2023/04/03 02:20:05;;;;;;;5.03;2.25;;;;;;;23.07;39.54;99581.37;4348297;32;32483;-67
2023/04/03 02:22:33;;;;;;;4.47;1.60;;;;;;;23.06;39.56;99587.88;4348506;32;34728;-69
2023/04/03 02:25:04;;;;;;;4.03;2.12;;;;;;;23.04;39.57;99584.59;4336327;32;34882;-67
2023/04/03 02:27:32;;;;;;;5.35;2.08;;;;;;;23.04;39.58;99590.03;4334970;32;33014;-70
2023/04/03 02:29:59;;;;;;;4.30;1.85;;;;;;;23.04;39.56;99592.75;4346984;33;34013;-70
2023/04/03 02:32:27;;;;;;;5.25;1.80;;;;;;;23.04;39.54;99589.19;4321852;33;33664;-69
2023/04/03 02:34:56;;;;;;;4.43;1.80;;;;;;;23.04;39.53;99586.47;4334511;33;33721;-67
2023/04/03 02:37:23;;;;;;;2.85;1.65;;;;;;;23.03;39.53;99584.78;4333585;33;34190;-70
2023/04/03 02:39:51;;;;;;;3.50;1.80;;;;;;;23.04;39.52;99586.47;4347357;32;33687;-72
2023/04/03 02:42:19;;;;;;;3.65;1.90;;;;;;;23.03;39.53;99584.78;4345811;32;33854;-67
2023/04/03 02:44:47;;;;;;;4.18;1.90;;;;;;;23.02;39.53;99589.41;4357966;32;33881;-67
2023/04/03 02:47:14;;;;;;;3.65;2.00;;;;;;;23.03;39.51;99590.22;4348284;32;33981;-69
2023/04/03 02:49:44;;;;;;;3.30;1.73;;;;;;;23.01;39.51;99589.66;4335839;32;33183;-69
2023/04/03 02:52:13;;;;;;;4.60;1.98;;;;;;;23.01;39.50;99579.59;4361754;32;33625;-66
2023/04/03 02:54:41;;;;;;;4.70;1.95;;;;;;;23.02;39.50;99586.69;4335960;32;33005;-66
2023/04/03 02:57:09;;;;;;;2.92;1.70;;;;;;;23.02;39.54;99580.41;4348415;32;33969;-66
2023/04/03 02:59:37;;;;;;;3.15;1.70;;;;;;;23.02;39.58;99580.41;4335955;32;32776;-66
2023/04/03 03:02:05;;;;;;;3.10;2.00;;;;;;;23.02;39.60;99586.69;4335921;32;32858;-68
2023/04/03 03:04:32;;;;;;;5.43;2.08;;;;;;;23.01;39.60;99589.66;4335777;32;34660;-66
2023/04/03 03:07:00;;;;;;;3.08;1.70;;;;;;;23.01;39.59;99595.91;4348218;32;34476;-68
2023/04/03 03:09:29;;;;;;;3.92;2.03;;;;;;;23.01;39.58;99597.81;4336272;32;33538;-68
2023/04/03 03:11:56;;;;;;;4.07;1.90;;;;;;;23.00;39.60;99596.97;4335717;32;33826;-69
2023/04/03 03:14:24;;;;;;;3.35;1.67;;;;;;;23.00;39.59;99596.16;4323788;32;33811;-68
2023/04/03 03:16:52;;;;;;;3.58;1.77;;;;;;;22.99;39.58;99600.75;4323931;32;33758;-67
2023/04/03 03:19:19;;;;;;;3.85;1.77;;;;;;;23.00;39.61;99607.03;4347716;32;32515;-66
2023/04/03 03:21:47;;;;;;;3.95;1.87;;;;;;;22.99;39.63;99608.06;4347916;32;33432;-67
2023/04/03 03:24:15;;;;;;;3.50;1.83;;;;;;;22.99;39.64;99605.34;4360613;32;33821;-65
2023/04/03 03:26:43;;;;;;;3.72;1.95;;;;;;;22.98;39.61;99604.53;4347986;32;33862;-67
2023/04/03 03:29:11;;;;;;;3.37;1.92;;;;;;;22.99;39.62;99608.94;4336444;32;33961;-68
2023/04/03 03:31:39;;;;;;;3.30;1.70;;;;;;;22.98;39.62;99609.97;4361495;32;33418;-68
2023/04/03 03:34:07;;;;;;;4.28;1.70;;;;;;;22.99;39.59;99608.94;4347790;32;33534;-66
2023/04/03 03:36:35;;;;;;;11.40;1.92;;;;;;;22.99;39.63;99603.50;4361495;32;34152;-67
2023/04/03 03:39:03;;;;;;;3.85;1.67;;;;;;;22.99;39.61;99605.34;4347077;32;34432;-69
2023/04/03 03:41:30;;;;;;;3.30;1.52;;;;;;;22.98;39.67;99607.25;4361225;32;33536;-67
2023/04/03 03:43:58;;;;;;;7.30;2.12;;;;;;;22.99;39.61;99605.34;4361503;32;34691;-67
2023/04/03 03:46:27;;;;;;;4.50;2.00;;;;;;;23.00;39.54;99609.75;4361156;32;34093;-67
2023/04/03 03:48:55;;;;;;;6.65;1.90;;;;;;;22.99;39.51;99606.22;4361230;32;34360;-68
2023/04/03 03:51:22;;;;;;;6.18;1.90;;;;;;;22.97;39.51;99608.31;4361380;32;33891;-67
2023/04/03 03:53:51;;;;;;;4.20;1.87;;;;;;;22.98;39.48;99618.13;4335531;32;34242;-67
2023/04/03 03:56:18;;;;;;;5.12;1.80;;;;;;;22.97;39.46;99613.75;4347909;32;33956;-69
2023/04/03 03:58:46;;;;;;;3.97;1.90;;;;;;;22.97;39.46;99618.38;4347717;32;33532;-67
2023/04/03 04:01:15;;;;;;;3.50;1.87;;;;;;;22.96;39.46;99612.09;4335520;32;33803;-67
2023/04/03 04:03:43;;;;;;;4.70;2.00;;;;;;;22.97;39.48;99615.66;4335889;32;33777;-67
2023/04/03 04:06:11;;;;;;;3.40;1.87;;;;;;;22.96;39.46;99611.28;4335514;32;33409;-66
2023/04/03 04:08:38;;;;;;;5.70;2.22;;;;;;;22.96;39.46;99611.28;4335465;32;33581;-66
2023/04/03 04:11:06;;;;;;;5.60;1.95;;;;;;;22.95;39.48;99607.72;4347838;32;34570;-68
2023/04/03 04:13:34;;;;;;;7.93;2.62;;;;;;;22.97;39.46;99607.47;4361026;32;34701;-67
2023/04/03 04:16:01;;;;;;;6.72;1.75;;;;;;;22.94;39.49;99606.03;4347570;32;34679;-67
2023/04/03 04:18:30;;;;;;;5.57;2.00;;;;;;;22.92;39.50;99608.16;4347802;32;34025;-67
2023/04/03 04:20:57;;;;;;;3.62;1.77;;;;;;;22.92;39.51;99609.00;4334961;32;33225;-68
2023/04/03 04:23:25;;;;;;;3.30;1.80;;;;;;;22.94;39.46;99616.09;4335314;32;34654;-67
2023/04/03 04:25:53;;;;;;;4.95;1.87;;;;;;;22.93;39.51;99615.25;4347409;32;33033;-67
2023/04/03 04:28:21;;;;;;;3.85;1.73;;;;;;;22.92;39.50;99610.88;4360691;32;33138;-66
2023/04/03 04:30:50;;;;;;;4.55;1.85;;;;;;;22.91;39.47;99609.22;4347542;32;34746;-67
2023/04/03 04:33:18;;;;;;;3.37;1.90;;;;;;;22.91;39.48;99618.22;4360684;32;34133;-68
2023/04/03 04:35:47;;;;;;;3.83;1.60;;;;;;;22.92;39.51;99611.72;4347501;32;33010;-65
2023/04/03 04:38:16;;;;;;;3.37;1.80;;;;;;;22.91;39.52;99615.50;4325194;32;33616;-68
2023/04/03 04:40:43;;;;;;;3.05;1.60;;;;;;;22.92;39.51;99614.44;4349192;32;33593;-67
2023/04/03 04:43:14;;;;;;;7.93;1.80;;;;;;;22.91;39.53;99623.66;4349337;32;33960;-66
2023/04/03 04:45:41;;;;;;;;;;;;;;;22.91;39.50;99620.94;4362996;32;33811;-67
2023/04/03 04:48:10;;;;;;;4.80;1.62;;;;;;;22.98;39.36;99626.28;4349389;32;34362;-67
2023/04/03 04:50:37;;;;;;;4.10;1.73;;;;;;;22.94;39.45;99616.09;4362493;32;34640;-68
2023/04/03 04:53:24;;;;;;;3.08;1.50;;;;;;;22.90;39.52;99618.47;4336813;32;33012;-67
2023/04/03 04:55:52;;;;;;;4.95;2.00;;;;;;;22.89;39.52;99619.50;4338502;32;33575;-69
2023/04/03 04:58:20;;;;;;;3.90;1.70;;;;;;;22.89;39.51;99628.47;4336654;32;32483;-68
2023/04/03 05:00:48;;;;;;;3.03;1.67;;;;;;;22.89;39.54;99633.09;4324710;32;32920;-66
2023/04/03 05:03:16;;;;;;;2.90;1.77;;;;;;;22.89;39.54;99627.66;4349085;32;33090;-69
2023/04/03 05:05:44;;;;;;;3.78;1.70;;;;;;;22.88;39.54;99621.34;4348998;32;33216;-66
2023/04/03 05:08:13;;;;;;;3.08;1.62;;;;;;;22.89;39.52;99620.31;4349432;32;34049;-67
2023/04/03 05:10:42;;;;;;;3.37;1.80;;;;;;;22.88;39.55;99629.50;4362449;32;34628;-67
2023/04/03 05:13:10;;;;;;;3.50;2.23;;;;;;;22.88;39.51;99636.84;4349412;32;33712;-68
2023/04/03 05:15:37;;;;;;;3.42;1.70;;;;;;;22.88;39.51;99629.50;4349054;32;34935;-67
2023/04/03 05:18:06;;;;;;;4.03;1.33;;;;;;;22.88;39.52;99631.41;4336624;32;33370;-67
2023/04/03 05:20:34;;;;;;;3.22;1.77;;;;;;;22.88;39.52;99636.84;4336990;32;33047;-66
2023/04/03 05:23:02;;;;;;;3.37;1.75;;;;;;;22.88;39.50;99636.84;4337032;32;34718;-66
2023/04/03 05:25:30;;;;;;;4.70;1.80;;;;;;;22.87;39.52;99641.47;4348365;32;33101;-68
2023/04/03 05:27:58;;;;;;;5.93;1.87;;;;;;;22.86;39.52;99637.09;4336983;32;33192;-66
2023/04/03 05:30:26;;;;;;;3.78;1.62;;;;;;;22.86;39.52;99637.09;4362121;32;33915;-67
2023/04/03 05:32:54;;;;;;;3.45;1.67;;;;;;;22.86;39.51;99636.25;4348763;32;33702;-66
2023/04/03 05:35:22;;;;;;;4.75;1.87;;;;;;;22.87;39.46;99633.31;4344248;32;34122;-67
2023/04/03 05:37:50;;;;;;;2.22;1.30;;;;;;;22.88;39.48;99628.69;4348764;32;33632;-66
2023/04/03 05:40:18;;;;;;;3.10;1.70;;;;;;;22.87;39.51;99627.03;4348250;32;32676;-67
2023/04/03 05:42:46;;;;;;;3.45;1.40;;;;;;;22.87;39.50;99627.84;4348821;32;34729;-66
2023/04/03 05:45:14;;;;;;;3.83;1.52;;;;;;;22.86;39.51;99633.53;4336381;32;33314;-68
2023/04/03 05:47:42;;;;;;;3.08;1.80;;;;;;;22.86;39.52;99630.81;4336124;32;32571;-66
2023/04/03 05:50:10;;;;;;;2.17;1.37;;;;;;;22.85;39.52;99635.44;4348612;32;34681;-66
2023/04/03 05:52:38;;;;;;;3.25;1.60;;;;;;;22.86;39.50;99638.97;4362063;32;34606;-66
2023/04/03 05:55:07;;;;;;;2.83;1.60;;;;;;;22.85;39.51;99640.03;4324299;32;33392;-67
2023/04/03 05:57:34;;;;;;;3.55;1.40;;;;;;;22.86;39.48;99644.41;4336534;32;33486;-68
2023/04/03 06:00:08;;;;;;;3.35;1.70;;;;;;;22.87;39.49;99651.50;4348750;32;33880;-65
2023/04/03 06:02:41;;;;;;;3.92;1.77;;;;;;;22.87;39.47;99648.78;4337594;32;34202;-65
2023/04/03 06:05:12;;;;;;;2.87;1.50;;;;;;;22.86;39.45;99647.97;4337076;32;34104;-66
2023/04/03 06:07:40;;;;;;;;;;;;;;;22.86;39.46;99649.84;4348976;32;33584;-68
2023/04/03 06:10:11;;;;;;;2.85;1.58;;;;;;;22.92;39.31;99644.38;4349165;32;34562;-67
2023/04/03 06:12:39;;;;;;;4.37;1.60;;;;;;;22.88;39.36;99658.59;4324448;32;33292;-67
2023/04/03 06:15:08;;;;;;;3.53;1.70;;;;;;;22.86;39.46;99658.84;4361740;32;33963;-67
2023/04/03 06:17:37;;;;;;;2.00;1.25;;;;;;;22.84;39.48;99651.97;4336661;32;33696;-66
2023/04/03 06:20:05;;;;;;;2.78;1.58;;;;;;;22.84;39.49;99649.25;4336018;32;32379;-68
2023/04/03 06:22:33;;;;;;;6.57;1.45;;;;;;;22.83;39.52;99653.03;4348976;32;34867;-67
2023/04/03 06:25:01;;;;;;;3.92;1.67;;;;;;;22.84;39.44;99655.50;4348157;32;33598;-67
2023/04/03 06:27:29;;;;;;;3.25;1.67;;;;;;;22.84;39.43;99657.41;4348283;32;33503;-67
2023/04/03 06:29:56;;;;;;;8.07;1.48;;;;;;;22.85;39.47;99659.09;4348462;32;33826;-67
2023/04/03 06:32:24;;;;;;;2.62;1.48;;;;;;;22.84;39.51;99658.22;4348477;32;34381;-67
2023/04/03 06:34:53;;;;;;;3.22;1.70;;;;;;;22.83;39.53;99653.84;4347973;32;34387;-67
2023/04/03 06:37:21;;;;;;;4.12;1.60;;;;;;;22.83;39.49;99653.03;4348423;32;33990;-67
2023/04/03 06:39:49;;;;;;;2.87;1.62;;;;;;;22.84;39.50;99658.22;4333427;33;33475;-67
2023/04/03 06:42:16;;;;;;;2.37;1.40;;;;;;;22.84;39.54;99668.28;4346808;33;34073;-70
2023/04/03 06:44:44;;;;;;;6.37;1.83;;;;;;;22.83;39.53;99672.06;4347121;33;33811;-66
2023/04/03 06:47:13;;;;;;;2.50;1.33;;;;;;;22.82;39.55;99671.22;4333733;33;33590;-69
2023/04/03 06:49:41;;;;;;;2.25;1.30;;;;;;;22.84;39.55;99680.00;4335696;32;34636;-65
2023/04/03 06:52:08;;;;;;;2.90;1.40;;;;;;;22.84;39.55;99677.28;4323829;32;33362;-69
2023/04/03 06:54:36;;;;;;;3.17;1.70;;;;;;;22.84;39.55;99682.72;4336215;32;34036;-67
2023/04/03 06:57:04;;;;;;;3.60;1.67;;;;;;;22.85;39.49;99678.12;4361440;32;33653;-68
2023/04/03 06:59:31;;;;;;;3.20;1.55;;;;;;;22.84;39.49;99682.72;4346962;32;33871;-68
2023/04/03 07:01:59;;;;;;;4.40;1.83;;;;;;;22.84;39.53;99679.16;4324154;32;33718;-70
2023/04/03 07:04:27;;;;;;;2.78;1.48;;;;;;;22.84;39.51;99673.72;4361494;32;34077;-66
2023/04/03 07:06:54;;;;;;;3.35;1.60;;;;;;;22.84;39.56;99674.53;4347957;32;33609;-66
2023/04/03 07:09:22;;;;;;;6.53;1.60;;;;;;;22.84;39.54;99673.72;4336157;32;32979;-73
2023/04/03 07:11:50;;;;;;;9.65;2.15;;;;;;;22.85;39.59;99683.56;4335784;32;33524;-71
2023/04/03 07:14:17;;;;;;;4.75;1.95;;;;;;;22.85;36.46;99691.72;4331972;32;34264;-70
2023/04/03 07:16:45;;;;;;;5.57;1.80;;;;;;;22.78;34.66;99680.91;4347501;32;34203;-67
2023/04/03 07:19:13;;;;;;;5.65;2.08;;;;;;;22.71;36.00;99688.31;4335204;32;33044;-68
2023/04/03 07:21:41;;;;;;;5.03;2.08;;;;;;;22.71;36.79;99677.44;4374243;32;33118;-69
2023/04/03 07:24:09;;;;;;;2.08;1.42;;;;;;;22.70;36.95;99681.19;4362495;32;34782;-68
2023/04/03 07:26:42;;;;;;;6.60;1.73;;;;;;;22.71;37.03;99682.88;4360102;32;91549;-67
2023/04/03 07:29:12;;;;;;;3.35;1.90;;;;;;;22.72;36.95;99680.97;4350168;32;32757;-69
2023/04/03 07:31:41;;;;;;;3.30;1.70;;;;;;;22.74;36.88;99674.25;4375593;32;33964;-68
2023/04/03 07:34:08;;;;;;;3.65;1.65;;;;;;;22.75;36.94;99677.78;4344691;33;34522;-67
2023/04/03 07:36:37;;;;;;;5.57;1.73;;;;;;;22.76;36.95;99693.06;4308486;33;32600;-67
2023/04/03 07:39:06;;;;;;;2.67;1.60;;;;;;;22.75;36.93;99692.22;4324917;32;34660;-67
2023/04/03 07:41:33;;;;;;;4.30;1.50;;;;;;;22.76;36.81;99699.34;4347628;32;33923;-69
2023/04/03 07:44:02;;;;;;;2.80;1.50;;;;;;;22.77;36.93;99703.72;4323297;32;34131;-68
2023/04/03 07:46:29;;;;;;;4.68;1.50;;;;;;;22.80;36.98;99705.16;4335284;32;33470;-68
2023/04/03 07:48:57;;;;;;;4.40;1.77;;;;;;;22.80;37.00;99705.16;4347774;32;33810;-68
2023/04/03 07:51:26;;;;;;;5.07;1.87;;;;;;;22.81;37.05;99704.94;4361261;32;34683;-67
2023/04/03 07:53:54;;;;;;;4.78;1.75;;;;;;;22.83;37.06;99705.53;4335594;32;34259;-67
2023/04/03 07:56:22;;;;;;;3.15;1.50;;;;;;;22.83;36.85;99700.09;4335464;32;34384;-68
2023/04/03 07:58:50;;;;;;;2.42;1.45;;;;;;;22.85;36.97;99702.63;4347739;32;33837;-69
2023/04/03 08:01:17;;;;;;;3.22;1.37;;;;;;;22.86;36.97;99715.97;4323078;32;32827;-68
2023/04/03 08:03:45;;;;;;;4.75;1.67;;;;;;;22.87;36.96;99712.19;4335295;32;34960;-69
2023/04/03 08:06:14;;;;;;;3.85;1.80;;;;;;;22.88;37.00;99713.03;4334147;32;32587;-67
2023/04/03 08:08:45;;;;;;;3.25;1.42;;;;;;;22.90;37.04;99716.41;4323478;32;32942;-68
2023/04/03 08:11:13;;;;;;;4.05;1.60;;;;;;;22.91;37.08;99712.63;4336144;32;34660;-67
2023/04/03 08:13:42;;;;;;;3.53;1.48;;;;;;;22.91;37.13;99715.34;4349333;32;34749;-68
2023/04/03 08:16:12;;;;;;;3.50;1.45;;;;;;;22.93;37.20;99721.38;4362517;32;34303;-67
2023/04/03 08:18:40;;;;;;;3.22;1.60;;;;;;;22.95;37.28;99724.72;4325126;32;34357;-67
2023/04/03 08:21:08;;;;;;;3.45;1.60;;;;;;;22.96;37.31;99720.09;4324517;32;33273;-68
2023/04/03 08:23:36;;;;;;;4.05;1.52;;;;;;;22.97;37.39;99732.66;4324844;32;33027;-68
2023/04/03 08:26:12;;;;;;;6.03;1.67;;;;;;;22.96;37.43;99720.94;4324812;32;32537;-69
2023/04/03 08:28:40;;;;;;;3.33;1.52;;;;;;;23.00;37.48;99724.88;4325005;32;33886;-68
2023/04/03 08:31:11;;;;;;;2.62;1.35;;;;;;;22.99;37.50;99725.06;4348012;32;34476;-68
2023/04/03 08:33:39;;;;;;;3.45;1.50;;;;;;;23.00;37.53;99734.94;4323157;32;33833;-69
2023/04/03 08:36:08;;;;;;;4.70;1.42;;;;;;;23.01;37.53;99725.69;4351482;32;34367;-66
2023/04/03 08:38:37;;;;;;;5.22;1.35;;;;;;;23.02;37.53;99724.63;4341309;32;33891;-66
2023/04/03 08:41:11;;;;;;;4.62;1.55;;;;;;;23.03;37.56;99727.13;4348728;32;33880;-69
2023/04/03 08:44:03;;;;;;;2.35;1.20;;;;;;;23.01;37.57;99723.81;4337166;32;32775;-68
2023/04/03 08:46:52;;;;;;;4.32;1.50;;;;;;;23.02;37.54;99728.19;4362265;32;33159;-68
2023/04/03 08:49:26;;;;;;;3.83;1.62;;;;;;;23.00;37.55;99721.31;4338133;32;32775;-70
2023/04/03 08:51:56;;;;;;;6.00;1.70;;;;;;;22.99;37.55;99725.06;4337889;32;33516;-67
2023/04/03 08:54:29;;;;;;;3.10;1.50;;;;;;;22.97;37.54;99721.75;4349125;32;34119;-71
2023/04/03 08:56:59;;;;;;;7.20;2.35;;;;;;;22.96;37.54;99722.81;4349320;32;33633;-71
2023/04/03 08:59:33;;;;;;;3.12;1.30;;;;;;;22.95;37.52;99732.88;4336865;32;33773;-69
2023/04/03 09:02:05;;;;;;;5.95;1.50;;;;;;;22.94;37.54;99723.03;4347399;32;34754;-69
2023/04/03 09:04:33;;;;;;;5.65;1.55;;;;;;;22.93;37.58;99729.53;4348843;32;35012;-71
2023/04/03 09:07:08;;;;;;;6.90;1.70;;;;;;;22.94;37.74;99728.47;4348631;32;33668;-71
2023/04/03 09:09:43;;;;;;;6.03;1.90;;;;;;;22.97;37.96;99732.66;4333633;33;33989;-70
2023/04/03 09:12:19;;;;;;;8.05;2.08;;;;;;;22.96;38.07;99731.81;4352163;32;34797;-69
2023/04/03 09:15:03;;;;;;;6.72;1.37;;;;;;;22.99;38.22;99719.63;4336079;32;32589;-66
2023/04/03 09:17:34;;;;;;;6.70;1.85;;;;;;;23.00;38.31;99733.03;4348728;32;33701;-69
2023/04/03 09:20:16;;;;;;;4.72;1.70;;;;;;;23.02;38.44;99725.47;4335957;32;33977;-71
2023/04/03 09:22:48;;;;;;;3.90;1.42;;;;;;;23.05;38.56;99729.63;4348315;32;33953;-68
2023/04/03 09:25:27;;;;;;;8.60;1.95;;;;;;;23.06;38.50;99732.13;4314311;32;33542;-67
2023/04/03 09:27:55;;;;;;;3.28;1.50;;;;;;;23.09;38.56;99736.31;4334522;32;32926;-70
2023/04/03 09:30:24;;;;;;;7.07;1.90;;;;;;;23.12;38.63;99742.09;4334084;32;32358;-68
2023/04/03 09:32:53;;;;;;;9.90;2.08;;;;;;;23.11;38.77;99729.56;4340688;32;34069;-66
2023/04/03 09:35:31;;;;;;;4.55;1.37;;;;;;;23.14;38.86;99734.56;4309814;32;33136;-70
2023/04/03 09:38:17;;;;;;;4.93;1.33;;;;;;;23.17;38.90;99734.13;4347676;32;33497;-68
2023/04/03 09:40:49;;;;;;;11.05;2.05;;;;;;;23.19;38.97;99738.50;4333838;32;33144;-68
2023/04/03 09:43:17;;;;;;;9.07;1.98;;;;;;;23.21;39.05;99731.75;4327936;32;34616;-69
2023/04/03 09:45:45;;;;;;;7.90;1.80;;;;;;;23.23;39.11;99726.09;4348229;32;34049;-71
2023/04/03 09:49:01;;;;;;;7.72;2.05;;;;;;;23.25;39.15;99732.13;4327392;32;32485;-71
2023/04/03 09:51:49;;;;;;;7.90;1.95;;;;;;;23.29;39.17;99730.62;4337350;32;34380;-72
2023/04/03 09:55:07;;;;;;;10.32;1.62;;;;;;;23.29;39.17;99731.44;4343041;32;33496;-73
2023/04/03 09:58:02;;;;;;;4.90;1.85;;;;;;;23.32;39.17;99724.75;4336833;32;34858;-70
2023/04/03 10:00:58;;;;;;;6.60;2.15;;;;;;;23.32;39.17;99730.19;4334185;33;34030;-70
2023/04/03 10:03:36;;;;;;;10.98;2.40;;;;;;;23.33;39.15;99731.84;4339726;32;34782;-71
2023/04/03 10:06:04;;;;;;;4.15;1.75;;;;;;;23.33;39.14;99724.50;4348147;32;34748;-71
2023/04/03 10:08:33;;;;;;;6.70;1.45;;;;;;;23.33;39.10;99719.06;4348306;32;35188;-72
2023/04/03 10:11:09;;;;;;;5.85;1.77;;;;;;;23.35;39.07;99721.53;4361870;32;33673;-73
2023/04/03 10:13:50;;;;;;;5.55;1.77;;;;;;;23.35;39.04;99725.09;4324480;32;32807;-70
2023/04/03 10:16:20;;;;;;;7.87;2.00;;;;;;;23.37;39.00;99719.44;4335230;32;33973;-72
2023/04/03 10:18:59;;;;;;;4.68;1.60;;;;;;;23.36;38.98;99715.88;4336704;32;34898;-71
2023/04/03 10:21:30;;;;;;;5.35;1.62;;;;;;;23.38;38.97;99716.47;4356104;32;33982;-71
2023/04/03 10:24:14;;;;;;;4.90;1.67;;;;;;;23.38;38.94;99721.09;4376780;32;33443;-72
2023/04/03 10:26:51;;;;;;;6.62;2.08;;;;;;;23.39;38.91;99720.03;4351043;32;32573;-69
2023/04/03 10:29:46;;;;;;;3.53;1.40;;;;;;;23.39;38.91;99715.41;4363593;32;34847;-71
2023/04/03 10:32:23;;;;;;;5.03;1.85;;;;;;;23.39;38.95;99720.84;4340354;32;32367;-76
2023/04/03 10:35:23;;;;;;;5.82;1.83;;;;;;;23.40;38.97;99717.06;4346520;33;33690;-70
2023/04/03 10:38:01;;;;;;;4.43;1.70;;;;;;;23.41;38.97;99720.66;4334616;33;34155;-70
2023/04/03 10:40:34;;;;;;;4.62;1.58;;;;;;;23.42;38.91;99719.59;4322181;33;34136;-73
2023/04/03 10:43:33;;;;;;;7.43;1.77;;;;;;;23.39;38.76;99709.97;4348226;32;33418;-71
2023/04/03 10:46:07;;;;;;;8.93;1.55;;;;;;;23.41;38.77;99717.91;4348327;32;33143;-74
2023/04/03 10:48:55;;;;;;;7.07;2.03;;;;;;;23.41;38.69;99721.47;4327255;32;32643;-70
2023/04/03 10:52:08;;;;;;;6.65;1.52;;;;;;;23.40;38.63;99711.63;4354240;32;34130;-72
2023/04/03 10:55:28;;;;;;;4.18;1.30;;;;;;;23.41;38.54;99715.19;4346831;33;33558;-72
2023/04/03 10:58:40;;;;;;;6.57;1.50;;;;;;;23.40;38.42;99708.91;4319104;33;33031;-73
2023/04/03 11:01:32;;;;;;;10.13;2.10;;;;;;;23.40;38.29;99710.78;4316412;32;32551;-65
2023/04/03 11:04:00;;;;;;;10.82;1.62;;;;;;;23.39;38.18;99715.41;4335978;32;33095;-66
2023/04/03 11:07:00;;;;;;;7.43;1.40;;;;;;;23.38;37.98;99713.75;4323888;32;33362;-66
2023/04/03 11:09:37;;;;;;;3.65;1.62;;;;;;;23.41;37.97;99713.31;4361664;32;32791;-65
2023/04/03 11:12:18;;;;;;;8.05;1.70;;;;;;;23.40;37.93;99716.22;4341046;32;35497;-66
2023/04/03 11:14:47;;;;;;;8.60;2.00;;;;;;;23.38;37.97;99708.31;4333404;33;33957;-66
2023/04/03 11:17:23;;;;;;;7.87;1.77;;;;;;;23.39;37.93;99711.84;4333389;33;33143;-66
2023/04/03 11:19:54;;;;;;;9.95;1.70;;;;;;;23.39;37.90;99703.69;4333390;33;34357;-66
2023/04/03 11:22:41;;;;;;;7.15;1.73;;;;;;;23.37;37.87;99712.09;4355026;32;33705;-66
2023/04/03 11:25:15;;;;;;;7.85;1.48;;;;;;;23.39;37.79;99703.69;4319793;33;33092;-66
2023/04/03 11:27:45;;;;;;;6.85;1.50;;;;;;;23.38;37.75;99699.31;4333209;33;33528;-67
2023/04/03 11:30:18;;;;;;;11.20;1.85;;;;;;;23.36;37.68;99696.81;4321614;33;34688;-66
2023/04/03 11:33:12;;;;;;;8.23;1.87;;;;;;;23.37;37.64;99698.47;4316919;32;34027;-66
2023/04/03 11:35:45;;;;;;;11.27;2.20;;;;;;;23.39;37.62;99688.19;4313764;32;34732;-65
2023/04/03 11:38:36;;;;;;;5.37;1.62;;;;;;;23.39;37.66;99688.19;4346493;32;33807;-65
2023/04/03 11:41:04;;;;;;;6.45;1.73;;;;;;;23.41;37.70;99679.81;4321346;33;34317;-65
2023/04/03 11:43:33;;;;;;;7.78;1.70;;;;;;;23.39;37.74;99679.19;4327493;32;34132;-67
2023/04/03 11:46:04;;;;;;;6.82;1.77;;;;;;;23.38;37.78;99681.06;4347127;32;34829;-67
2023/04/03 11:48:35;;;;;;;5.55;1.60;;;;;;;23.40;37.82;99689.00;4335280;32;33560;-66
2023/04/03 11:51:20;;;;;;;7.32;2.00;;;;;;;23.39;37.85;99681.91;4346348;32;33906;-65
2023/04/03 11:53:48;;;;;;;5.10;1.33;;;;;;;23.40;37.85;99683.56;4361062;32;33945;-67